Pagrindinis puslapis
METAR-TAF:

METAR-TAF

Oro uostai :

Hohn, Vokietija

platuma: 54-19N, ilguma: 009-32E, Aukštis: 12 m

Dabartinis oras

Ataskaita buvo paskelbta 1 valandą ir 9 minutes, ne 08:20 UTC
Vėjas 7 kt iš Vakarų/Pietvakarių
Temperatūra 15°C
Drėgmė 77%
Slėgis 1027 hPa
Matomumas 10 km arba daugiau
Mažai debesys ne aukštis 2200 ft
Su prošvaistėmis ne aukštis 4500 ft

METAR: ETNH 200820Z 25007KT 9999 FEW022 BKN045 15/11 Q1027 BLU BLU TEMPO WHT

Laikas: 11:29 (09:29 UTC)

Prognozė

Ataskaita buvo paskelbta 2 valandos ir 9 minutes, ne 07:20 UTC
Prognozė galioja nuo 20 metu 07 UTC su 20 metu 17 UTC
Vėjas 5 kt iš Vakarų/Pietvakarių
Matomumas 10 km arba daugiau
Mažai debesys ne aukštis 2000 ft
Su prošvaistėmis ne aukštis 4000 ft
Laikinai
nuo 20 metu 07 UTC su 20 metu 17 UTC
Vėjas 7 kt iš Vakarų/Pietvakarių
Matomumas: 8000 m
Su prošvaistėmis ne aukštis 2000 ft
Su prošvaistėmis ne aukštis 30000 ft

TAF: ETNH 200720Z 2007/2017 24005KT 9999 NSW FEW020 BKN040 TEMPO 2007/2017 24007KT 8000 NSW BKN020 BKN300 BY ETGL

Orai ataskaitas ir orų prognozės (METAR, TAF).

turimą stotys yra geltonos ir raudonos taškus žemėlapyje.

Perkelti pele per norėdami pamatyti stoties vardą.

Tada spustelėkite, norėdami matyti oro stebėjimo ir prognozės.

Norėdami pakeisti žemėlapį: spustelėkite ant žalios mygtukų su juodo kryžiaus žemyn,; žalią mygtuką su brūkšneliu, jei norite nutolinti; arba žalių rodyklių gretimoms žemėlapius.


METAR-TAF: